createdAt,value
2023-01-13T00:01:09.897Z,2.03
2023-01-13T00:04:15.052Z,3.10
2023-01-13T00:07:21.444Z,2.60
2023-01-13T00:10:26.547Z,2.47
2023-01-13T00:13:33.687Z,2.50
2023-01-13T00:16:38.971Z,1.87
2023-01-13T00:19:44.739Z,2.80
2023-01-13T00:22:51.187Z,2.43
2023-01-13T00:25:58.062Z,2.53
2023-01-13T00:29:03.352Z,2.43
2023-01-13T00:32:08.672Z,2.00
2023-01-13T00:35:14.367Z,2.50
2023-01-13T00:38:20.909Z,2.40
2023-01-13T00:41:27.459Z,2.23
2023-01-13T00:44:31.444Z,2.37
2023-01-13T00:47:36.504Z,1.90
2023-01-13T00:50:41.667Z,2.27
2023-01-13T00:53:50.238Z,2.03
2023-01-13T00:56:55.296Z,2.27
2023-01-13T01:00:00.400Z,2.00
2023-01-13T01:03:09.116Z,2.10
2023-01-13T01:06:16.199Z,2.20
2023-01-13T01:09:22.635Z,2.00
2023-01-13T01:12:30.100Z,1.90
2023-01-13T01:15:35.207Z,2.00
2023-01-13T01:18:41.634Z,1.77
2023-01-13T01:21:46.855Z,1.77
2023-01-13T01:24:53.569Z,2.00
2023-01-13T01:27:59.079Z,1.90
2023-01-13T01:31:08.798Z,1.87
2023-01-13T01:34:14.080Z,1.53
2023-01-13T01:37:19.948Z,1.50
2023-01-13T01:40:27.847Z,1.90
2023-01-13T01:44:07.079Z,1.93
2023-01-13T01:47:15.947Z,1.87
2023-01-13T01:50:21.974Z,1.77
2023-01-13T01:53:28.643Z,1.90
2023-01-13T01:56:35.814Z,1.70
2023-01-13T01:59:41.098Z,1.87
2023-01-13T02:03:08.083Z,2.10
2023-01-13T02:06:14.820Z,2.00
2023-01-13T02:09:20.145Z,2.20
2023-01-13T02:12:31.887Z,1.87
2023-01-13T02:15:42.673Z,2.03
2023-01-13T02:18:55.428Z,2.10
2023-01-13T02:22:16.928Z,2.10
2023-01-13T02:25:50.795Z,1.90
2023-01-13T02:29:27.032Z,2.13
2023-01-13T02:32:37.255Z,2.20
2023-01-13T02:35:49.400Z,2.10
2023-01-13T02:39:01.262Z,1.90
2023-01-13T02:42:26.388Z,2.20
2023-01-13T02:45:34.186Z,2.30
2023-01-13T02:48:42.065Z,2.20
2023-01-13T02:51:48.121Z,2.00
2023-01-13T02:54:56.348Z,2.57
2023-01-13T02:58:03.296Z,2.20
2023-01-13T03:01:08.723Z,2.13
2023-01-13T03:04:16.558Z,2.20
2023-01-13T03:07:46.573Z,1.80
2023-01-13T03:11:09.746Z,1.70
2023-01-13T03:14:25.250Z,1.80
2023-01-13T03:17:37.206Z,1.97
2023-01-13T03:20:48.841Z,2.23
2023-01-13T03:23:58.455Z,1.93
2023-01-13T03:27:07.848Z,1.93
2023-01-13T03:30:18.665Z,2.00
2023-01-13T03:33:26.518Z,1.63
2023-01-13T03:36:34.792Z,1.90
2023-01-13T03:39:42.612Z,2.00
2023-01-13T03:43:03.820Z,1.83
2023-01-13T03:46:13.210Z,1.80
2023-01-13T03:49:22.505Z,2.10
2023-01-13T03:52:30.982Z,1.77
2023-01-13T03:55:38.312Z,1.80
2023-01-13T03:58:46.234Z,2.10
2023-01-13T04:01:55.975Z,1.90
2023-01-13T04:05:03.043Z,2.00
2023-01-13T04:08:18.027Z,2.00
2023-01-13T04:11:28.812Z,2.07
2023-01-13T04:14:34.098Z,2.00
2023-01-13T04:17:39.507Z,2.10
2023-01-13T04:20:45.848Z,2.10
2023-01-13T04:23:52.563Z,2.57
2023-01-13T04:26:58.236Z,2.20
2023-01-13T04:30:03.680Z,2.23
2023-01-13T04:33:08.814Z,2.10
2023-01-13T04:36:14.077Z,2.20
2023-01-13T04:39:20.665Z,2.60
2023-01-13T04:42:25.716Z,2.60
2023-01-13T04:45:30.824Z,2.60
2023-01-13T04:48:36.664Z,2.90
2023-01-13T04:51:41.725Z,2.70
2023-01-13T04:54:48.270Z,2.57
2023-01-13T04:57:53.355Z,2.67
2023-01-13T05:00:58.579Z,2.87
2023-01-13T05:04:03.696Z,2.90
2023-01-13T05:07:08.856Z,3.47
2023-01-13T05:10:16.226Z,3.43
2023-01-13T05:13:39.208Z,3.60
2023-01-13T05:17:03.801Z,3.10
2023-01-13T05:20:10.835Z,3.93
2023-01-13T05:23:33.519Z,3.87
2023-01-13T05:26:40.160Z,3.80
2023-01-13T05:29:45.234Z,3.97
2023-01-13T05:32:53.136Z,4.63
2023-01-13T05:35:58.337Z,4.20
2023-01-13T05:39:03.760Z,4.10
2023-01-13T05:42:28.785Z,3.83
2023-01-13T05:45:34.168Z,3.90
2023-01-13T05:48:41.220Z,3.13
2023-01-13T05:51:46.604Z,4.00
2023-01-13T05:54:52.240Z,3.93
2023-01-13T05:57:58.725Z,3.53
2023-01-13T06:01:05.708Z,3.10
2023-01-13T06:04:12.843Z,3.47
2023-01-13T06:07:17.899Z,3.73
2023-01-13T06:10:22.999Z,3.20
2023-01-13T06:13:29.514Z,4.63
2023-01-13T06:16:34.829Z,4.23
2023-01-13T06:20:37.100Z,4.90
2023-01-13T06:23:42.379Z,4.57
2023-01-13T06:26:47.515Z,4.27
2023-01-13T06:29:52.883Z,4.20
2023-01-13T06:33:01.992Z,4.03
2023-01-13T06:36:14.425Z,4.17
2023-01-13T06:39:21.980Z,4.37
2023-01-13T06:42:44.748Z,4.03
2023-01-13T06:45:51.979Z,4.30
2023-01-13T06:48:57.122Z,4.50
2023-01-13T06:52:03.793Z,4.70
2023-01-13T06:55:09.561Z,4.70
2023-01-13T06:58:15.099Z,4.27
2023-01-13T07:01:20.407Z,4.67
2023-01-13T07:04:25.656Z,4.17
2023-01-13T07:07:33.683Z,4.00
2023-01-13T07:10:39.310Z,3.90
2023-01-13T07:14:02.072Z,4.30
2023-01-13T07:17:07.243Z,3.70
2023-01-13T07:20:15.403Z,3.00
2023-01-13T07:23:21.946Z,3.20
2023-01-13T07:26:27.266Z,3.27
2023-01-13T07:29:32.541Z,3.10
2023-01-13T07:32:37.732Z,2.77
2023-01-13T07:35:42.855Z,3.07
2023-01-13T07:38:49.912Z,2.30
2023-01-13T07:42:12.687Z,2.53
2023-01-13T07:45:18.981Z,3.30
2023-01-13T07:48:24.059Z,3.20
2023-01-13T07:51:29.198Z,3.10
2023-01-13T07:54:41.120Z,2.70
2023-01-13T07:57:46.961Z,2.97
2023-01-13T08:00:52.148Z,2.50
2023-01-13T08:03:58.623Z,2.70
2023-01-13T08:07:04.349Z,2.70
2023-01-13T08:10:12.193Z,2.60
2023-01-13T08:13:20.106Z,2.40
2023-01-13T08:16:25.593Z,2.30
2023-01-13T08:19:30.740Z,2.23
2023-01-13T08:22:35.945Z,2.50
2023-01-13T08:25:42.555Z,2.50
2023-01-13T08:28:47.931Z,1.73
2023-01-13T08:31:53.244Z,1.80
2023-01-13T08:34:58.142Z,1.80
2023-01-13T08:38:03.225Z,1.90
2023-01-13T08:41:14.601Z,2.10
2023-01-13T08:44:19.451Z,2.07
2023-01-13T08:47:25.088Z,2.03
2023-01-13T08:50:30.326Z,2.17
2023-01-13T08:53:35.519Z,1.80
2023-01-13T08:56:43.431Z,1.93
2023-01-13T08:59:48.981Z,1.90
2023-01-13T09:02:54.055Z,2.20
2023-01-13T09:05:59.352Z,2.07
2023-01-13T09:09:04.697Z,1.63
2023-01-13T09:12:31.782Z,1.53
2023-01-13T09:15:36.966Z,1.60
2023-01-13T09:18:42.200Z,1.20
2023-01-13T09:21:47.329Z,1.50
2023-01-13T09:24:52.478Z,1.47
2023-01-13T09:27:59.166Z,1.50
2023-01-13T09:31:04.373Z,1.10
2023-01-13T09:34:43.641Z,0.97
2023-01-13T09:37:48.662Z,2.00
2023-01-13T09:40:53.811Z,1.10
2023-01-13T09:44:00.829Z,1.40
2023-01-13T09:47:16.400Z,1.10
2023-01-13T09:50:27.753Z,0.90
2023-01-13T09:53:35.566Z,0.90
2023-01-13T09:56:40.855Z,1.00
2023-01-13T09:59:47.689Z,1.07
2023-01-13T10:03:11.881Z,1.00
2023-01-13T10:06:21.127Z,1.10
2023-01-13T10:09:31.510Z,0.90
2023-01-13T10:12:54.421Z,0.90
2023-01-13T10:16:20.120Z,0.90
2023-01-13T10:19:29.373Z,1.10
2023-01-13T10:22:52.044Z,1.10
2023-01-13T10:26:03.174Z,1.20
2023-01-13T10:29:24.961Z,1.50
2023-01-13T10:32:31.861Z,1.80
2023-01-13T10:35:59.565Z,2.67
2023-01-13T10:39:10.802Z,2.30
2023-01-13T10:42:17.759Z,2.47
2023-01-13T10:45:27.070Z,2.60
2023-01-13T10:48:42.356Z,2.70
2023-01-13T10:51:50.516Z,3.30
2023-01-13T10:54:56.256Z,3.43
2023-01-13T10:58:14.406Z,3.93
2023-01-13T11:01:26.956Z,4.27
2023-01-13T11:04:36.693Z,5.13
2023-01-13T11:07:43.135Z,5.10
2023-01-13T11:10:51.014Z,4.73
2023-01-13T11:14:15.330Z,4.93
2023-01-13T11:17:32.837Z,4.70
2023-01-13T11:20:42.297Z,4.10
2023-01-13T11:23:50.514Z,3.70
2023-01-13T11:26:58.649Z,3.57
2023-01-13T11:30:11.361Z,3.27
2023-01-13T11:33:44.342Z,2.93
2023-01-13T11:36:54.026Z,2.97
2023-01-13T11:40:05.375Z,2.73
2023-01-13T11:43:19.252Z,2.53
2023-01-13T11:46:27.432Z,2.70
2023-01-13T11:49:34.690Z,2.77
2023-01-13T11:53:08.868Z,2.50
2023-01-13T11:56:38.247Z,2.70
2023-01-13T12:00:09.143Z,2.30
2023-01-13T12:03:30.991Z,2.03
2023-01-13T12:06:37.691Z,1.97
2023-01-13T12:09:57.510Z,2.03
2023-01-13T12:13:09.210Z,2.00
2023-01-13T12:16:23.964Z,1.90
2023-01-13T12:19:30.526Z,1.83
2023-01-13T12:22:36.918Z,2.27
2023-01-13T12:25:46.959Z,2.20
2023-01-13T12:28:56.644Z,2.00
2023-01-13T12:32:03.428Z,1.80
2023-01-13T12:35:23.756Z,2.00
2023-01-13T12:38:36.545Z,2.30
2023-01-13T12:42:02.199Z,2.50
2023-01-13T12:45:19.473Z,2.00
2023-01-13T12:48:46.549Z,2.33
2023-01-13T12:52:14.050Z,2.30
2023-01-13T12:55:22.995Z,2.07
2023-01-13T12:58:30.349Z,2.30
2023-01-13T13:01:37.563Z,2.30
2023-01-13T13:04:49.929Z,2.10
2023-01-13T13:08:05.917Z,2.07
2023-01-13T13:11:58.071Z,2.30
2023-01-13T13:15:19.437Z,2.10
2023-01-13T13:18:28.332Z,2.20
2023-01-13T13:22:23.767Z,2.30
2023-01-13T13:25:29.419Z,2.20
2023-01-13T13:28:37.731Z,2.20
2023-01-13T13:32:26.028Z,2.37
2023-01-13T13:35:53.857Z,2.67
2023-01-13T13:39:29.510Z,2.53
2023-01-13T13:42:56.355Z,2.73
2023-01-13T13:46:20.099Z,2.80
2023-01-13T13:49:40.495Z,2.60
2023-01-13T13:52:51.860Z,2.93
2023-01-13T13:55:59.667Z,2.70
2023-01-13T13:59:06.063Z,2.60
2023-01-13T14:02:18.915Z,2.33
2023-01-13T14:05:30.321Z,2.30
2023-01-13T14:08:37.748Z,2.50
2023-01-13T14:11:43.362Z,2.37
2023-01-13T14:14:49.419Z,2.33
2023-01-13T14:17:54.967Z,2.50
2023-01-13T14:21:03.928Z,3.03
2023-01-13T14:24:21.127Z,2.63
2023-01-13T14:27:28.652Z,2.70
2023-01-13T14:30:34.923Z,2.60
2023-01-13T14:33:41.510Z,2.80
2023-01-13T14:36:51.224Z,2.50
2023-01-13T14:39:56.566Z,2.37
2023-01-13T14:43:01.804Z,2.50
2023-01-13T14:46:07.270Z,2.70
2023-01-13T14:49:24.224Z,2.70
2023-01-13T14:52:34.182Z,2.60
2023-01-13T14:55:40.892Z,2.63
2023-01-13T14:58:46.090Z,2.60
2023-01-13T15:01:52.504Z,2.70
2023-01-13T15:04:59.238Z,3.00
2023-01-13T15:08:10.015Z,3.13
2023-01-13T15:11:25.207Z,3.07
2023-01-13T15:14:33.835Z,3.30
2023-01-13T15:17:38.980Z,3.80
2023-01-13T15:20:44.733Z,3.60
2023-01-13T15:23:51.129Z,4.00
2023-01-13T15:26:56.525Z,3.37
2023-01-13T15:30:01.668Z,4.00
2023-01-13T15:33:07.577Z,2.97
2023-01-13T15:36:23.461Z,2.90
2023-01-13T15:39:30.029Z,3.77
2023-01-13T15:43:04.188Z,3.50
2023-01-13T15:46:33.938Z,3.60
2023-01-13T15:49:41.730Z,3.87
2023-01-13T15:52:46.919Z,3.50
2023-01-13T15:55:55.022Z,4.43
2023-01-13T15:59:00.180Z,5.03
2023-01-13T16:02:05.224Z,4.40
2023-01-13T16:05:13.375Z,4.40
2023-01-13T16:08:19.440Z,4.17
2023-01-13T16:11:27.735Z,4.13
2023-01-13T16:14:32.953Z,4.13
2023-01-13T16:17:38.349Z,3.77
2023-01-13T16:20:43.841Z,3.83
2023-01-13T16:23:49.400Z,3.40
2023-01-13T16:26:56.045Z,3.33
2023-01-13T16:30:01.391Z,3.50
2023-01-13T16:33:06.640Z,3.43
2023-01-13T16:36:16.250Z,3.60
2023-01-13T16:39:22.833Z,4.00
2023-01-13T16:42:29.392Z,3.73
2023-01-13T16:45:35.093Z,6.03
2023-01-13T16:48:40.224Z,4.20
2023-01-13T16:51:45.670Z,5.07
2023-01-13T16:54:50.865Z,3.87
2023-01-13T16:57:57.485Z,4.00
2023-01-13T17:01:02.720Z,3.90
2023-01-13T17:04:08.836Z,4.00
2023-01-13T17:07:17.758Z,3.97
2023-01-13T17:10:24.417Z,4.07
2023-01-13T17:13:30.989Z,3.87
2023-01-13T17:16:35.946Z,3.60
2023-01-13T17:19:43.710Z,3.90
2023-01-13T17:22:57.707Z,3.70
2023-01-13T17:26:03.393Z,3.57
2023-01-13T17:29:13.392Z,3.40
2023-01-13T17:32:19.315Z,4.23
2023-01-13T17:35:25.434Z,3.40
2023-01-13T17:38:30.670Z,3.67
2023-01-13T17:41:35.744Z,3.77
2023-01-13T17:44:42.277Z,4.47
2023-01-13T17:47:47.662Z,5.77
2023-01-13T17:50:53.483Z,5.70
2023-01-13T17:54:01.581Z,5.77
2023-01-13T17:57:06.772Z,5.00
2023-01-13T18:00:16.284Z,5.30
2023-01-13T18:03:24.482Z,5.63
2023-01-13T18:06:30.092Z,5.03
2023-01-13T18:09:35.510Z,4.70
2023-01-13T18:12:43.956Z,4.77
2023-01-13T18:15:50.260Z,3.83
2023-01-13T18:19:16.275Z,4.00
2023-01-13T18:22:39.473Z,4.13
2023-01-13T18:26:02.277Z,4.10
2023-01-13T18:29:07.941Z,4.20
2023-01-13T18:32:16.360Z,4.13
2023-01-13T18:35:21.735Z,3.93
2023-01-13T18:38:26.928Z,4.20
2023-01-13T18:41:49.531Z,4.33
2023-01-13T18:44:56.150Z,4.87
2023-01-13T18:48:03.816Z,4.67
2023-01-13T18:51:08.986Z,4.47
2023-01-13T18:54:14.331Z,4.30
2023-01-13T18:57:21.406Z,4.37
2023-01-13T19:00:27.515Z,3.77
2023-01-13T19:03:34.091Z,4.40
2023-01-13T19:06:47.937Z,4.47
2023-01-13T19:09:52.789Z,4.50
2023-01-13T19:12:58.284Z,4.40
2023-01-13T19:16:06.986Z,5.37
2023-01-13T19:19:14.529Z,4.97
2023-01-13T19:22:22.556Z,5.20
2023-01-13T19:25:27.893Z,5.87
2023-01-13T19:28:33.465Z,5.97
2023-01-13T19:31:39.219Z,5.70
2023-01-13T19:34:47.796Z,5.50
2023-01-13T19:37:54.003Z,5.37
2023-01-13T19:41:00.740Z,5.50
2023-01-13T19:44:23.705Z,4.70
2023-01-13T19:47:28.774Z,4.40
2023-01-13T19:50:38.533Z,5.27
2023-01-13T19:53:44.173Z,5.57
2023-01-13T19:56:49.737Z,6.03
2023-01-13T19:59:54.844Z,5.43
2023-01-13T20:03:03.524Z,5.03
2023-01-13T20:06:11.125Z,5.33
2023-01-13T20:09:16.393Z,6.40
2023-01-13T20:12:21.751Z,5.03
2023-01-13T20:15:27.196Z,4.83
2023-01-13T20:18:36.613Z,4.67
2023-01-13T20:21:46.018Z,4.67
2023-01-13T20:24:55.168Z,5.17
2023-01-13T20:28:02.223Z,5.77
2023-01-13T20:31:09.745Z,5.17
2023-01-13T20:34:15.838Z,4.97
2023-01-13T20:37:22.778Z,5.20
2023-01-13T20:40:28.226Z,4.60
2023-01-13T20:43:32.405Z,4.80
2023-01-13T20:46:37.781Z,4.47
2023-01-13T20:49:42.847Z,5.33
2023-01-13T20:52:49.919Z,5.00
2023-01-13T20:55:55.021Z,5.00
2023-01-13T20:59:00.213Z,4.43
2023-01-13T21:02:05.804Z,4.93
2023-01-13T21:05:13.253Z,5.13
2023-01-13T21:08:19.712Z,4.27
2023-01-13T21:11:40.266Z,4.27
2023-01-13T21:15:02.911Z,4.17
2023-01-13T21:18:25.911Z,4.27
2023-01-13T21:21:31.078Z,3.90
2023-01-13T21:24:37.557Z,3.53
2023-01-13T21:27:44.065Z,3.77
2023-01-13T21:30:50.105Z,3.70
2023-01-13T21:33:55.529Z,3.97
2023-01-13T21:37:01.053Z,3.90
2023-01-13T21:40:10.209Z,4.30
2023-01-13T21:43:32.826Z,4.63
2023-01-13T21:46:54.957Z,3.50
2023-01-13T21:50:00.665Z,3.63
2023-01-13T21:53:07.391Z,4.17
2023-01-13T21:56:14.610Z,4.00
2023-01-13T21:59:19.951Z,3.93
2023-01-13T22:02:33.049Z,4.00
2023-01-13T22:05:38.533Z,3.73
2023-01-13T22:08:46.273Z,3.57
2023-01-13T22:11:52.635Z,3.83
2023-01-13T22:14:58.256Z,4.17
2023-01-13T22:18:05.338Z,3.90
2023-01-13T22:21:13.601Z,3.77
2023-01-13T22:24:18.729Z,3.73
2023-01-13T22:27:26.399Z,3.73
2023-01-13T22:30:32.597Z,3.70
2023-01-13T22:33:37.837Z,4.60
2023-01-13T22:36:43.045Z,3.83
2023-01-13T22:39:48.230Z,3.87
2023-01-13T22:42:54.625Z,3.47
2023-01-13T22:46:00.945Z,3.73
2023-01-13T22:49:06.056Z,3.83
2023-01-13T22:52:12.425Z,3.53
2023-01-13T22:55:18.067Z,3.73
2023-01-13T22:58:24.878Z,4.00
2023-01-13T23:01:31.344Z,4.10
2023-01-13T23:04:36.527Z,4.10
2023-01-13T23:07:41.839Z,3.67
2023-01-13T23:10:47.035Z,3.90
2023-01-13T23:13:57.695Z,3.70
2023-01-13T23:17:02.924Z,3.67
2023-01-13T23:20:08.343Z,3.67
2023-01-13T23:23:14.242Z,3.47
2023-01-13T23:26:19.574Z,3.40
2023-01-13T23:29:26.061Z,3.63
2023-01-13T23:32:31.344Z,3.30
2023-01-13T23:35:36.903Z,3.53
2023-01-13T23:38:42.469Z,3.07
2023-01-13T23:41:47.714Z,2.67
2023-01-13T23:44:54.205Z,3.23
2023-01-13T23:47:59.337Z,2.90
2023-01-13T23:51:06.727Z,3.13
2023-01-13T23:54:11.905Z,2.90
2023-01-13T23:57:17.136Z,3.00
